createdAt,value
2018-05-27T00:00:12.209Z,9.40
2018-05-27T00:01:12.148Z,9.20
2018-05-27T00:02:12.093Z,8.90
2018-05-27T00:03:12.032Z,9.20
2018-05-27T00:04:11.974Z,9.70
2018-05-27T00:05:11.916Z,9.40
2018-05-27T00:06:11.859Z,8.90
2018-05-27T00:07:11.801Z,9.30
2018-05-27T00:08:11.741Z,9.00
2018-05-27T00:09:11.684Z,9.60
2018-05-27T00:10:11.626Z,9.00
2018-05-27T00:11:11.569Z,9.30
2018-05-27T00:12:11.515Z,9.20
2018-05-27T00:13:11.450Z,9.50
2018-05-27T00:14:11.392Z,9.40
2018-05-27T00:15:11.336Z,9.20
2018-05-27T00:16:11.274Z,9.60
2018-05-27T00:17:11.217Z,9.20
2018-05-27T00:18:11.162Z,8.90
2018-05-27T00:19:11.099Z,9.60
2018-05-27T00:20:11.041Z,9.90
2018-05-27T00:21:10.990Z,9.30
2018-05-27T00:22:10.928Z,9.10
2018-05-27T00:23:10.868Z,10.30
2018-05-27T00:24:10.807Z,10.30
2018-05-27T00:25:10.750Z,10.40
2018-05-27T00:26:10.695Z,10.20
2018-05-27T00:27:10.630Z,10.70
2018-05-27T00:28:10.573Z,10.30
2018-05-27T00:29:10.516Z,9.30
2018-05-27T00:30:10.461Z,10.10
2018-05-27T00:31:10.398Z,9.70
2018-05-27T00:32:10.346Z,10.00
2018-05-27T00:33:10.283Z,9.40
2018-05-27T00:34:10.225Z,10.00
2018-05-27T00:35:10.165Z,10.20
2018-05-27T00:36:10.108Z,9.40
2018-05-27T00:37:10.061Z,10.40
2018-05-27T00:38:09.990Z,10.20
2018-05-27T00:39:09.935Z,10.30
2018-05-27T00:40:09.875Z,10.50
2018-05-27T00:41:09.816Z,10.00
2018-05-27T00:42:09.759Z,10.70
2018-05-27T00:43:09.697Z,10.30
2018-05-27T00:44:09.642Z,10.30
2018-05-27T00:45:09.580Z,10.60
2018-05-27T00:46:09.521Z,10.30
2018-05-27T00:47:09.462Z,10.70
2018-05-27T00:48:09.410Z,11.20
2018-05-27T00:49:09.347Z,10.80
2018-05-27T00:50:09.286Z,11.00
2018-05-27T00:51:09.227Z,10.60
2018-05-27T00:52:09.168Z,10.60
2018-05-27T00:53:09.113Z,11.30
2018-05-27T00:54:09.051Z,11.10
2018-05-27T00:55:08.993Z,11.00
2018-05-27T00:56:08.936Z,11.00
2018-05-27T00:57:08.880Z,11.60
2018-05-27T00:58:08.815Z,10.50
2018-05-27T00:59:08.755Z,10.40
2018-05-27T01:00:08.696Z,10.80
2018-05-27T01:01:08.640Z,10.20
2018-05-27T01:02:08.581Z,10.80
2018-05-27T01:03:08.519Z,10.80
2018-05-27T01:04:08.462Z,11.20
2018-05-27T01:05:08.405Z,11.50
2018-05-27T01:06:08.350Z,10.80
2018-05-27T01:07:08.286Z,11.10
2018-05-27T01:08:08.228Z,11.20
2018-05-27T01:09:08.169Z,11.20
2018-05-27T01:10:08.108Z,11.30
2018-05-27T01:11:08.054Z,11.30
2018-05-27T01:12:07.989Z,11.30
2018-05-27T01:13:07.935Z,11.20
2018-05-27T01:14:07.877Z,11.50
2018-05-27T01:15:07.818Z,12.30
2018-05-27T01:16:07.758Z,11.60
2018-05-27T01:17:07.696Z,11.90
2018-05-27T01:18:07.639Z,11.60
2018-05-27T01:19:07.578Z,11.80
2018-05-27T01:20:07.523Z,12.10
2018-05-27T01:21:07.461Z,11.80
2018-05-27T01:22:07.401Z,11.90
2018-05-27T01:23:07.344Z,11.80
2018-05-27T01:24:07.285Z,11.90
2018-05-27T01:25:07.226Z,12.20
2018-05-27T01:26:07.167Z,11.70
2018-05-27T01:27:07.107Z,11.80
2018-05-27T01:28:07.048Z,11.90
2018-05-27T01:29:06.986Z,12.10
2018-05-27T01:30:06.932Z,12.10
2018-05-27T01:31:06.864Z,12.30
2018-05-27T01:32:06.809Z,11.90
2018-05-27T01:33:06.752Z,12.00
2018-05-27T01:34:06.692Z,12.60
2018-05-27T01:35:06.641Z,12.20
2018-05-27T01:36:06.572Z,11.30
2018-05-27T01:37:06.520Z,12.30
2018-05-27T01:38:06.458Z,12.20
2018-05-27T01:39:06.401Z,12.40
2018-05-27T01:40:06.338Z,12.40
2018-05-27T01:41:06.278Z,12.00
2018-05-27T01:42:06.218Z,12.20
2018-05-27T01:43:06.159Z,11.70
2018-05-27T01:44:06.099Z,11.80
2018-05-27T01:45:06.046Z,12.70
2018-05-27T01:46:05.982Z,12.20
2018-05-27T01:47:05.924Z,11.90
2018-05-27T01:48:05.865Z,12.60
2018-05-27T01:49:05.806Z,12.50
2018-05-27T01:50:05.742Z,12.70
2018-05-27T01:51:05.691Z,13.40
2018-05-27T01:52:05.625Z,12.60
2018-05-27T01:53:05.572Z,14.00
2018-05-27T01:54:05.507Z,14.60
2018-05-27T01:55:05.448Z,13.80
2018-05-27T01:56:05.389Z,13.70
2018-05-27T01:57:05.336Z,12.50
2018-05-27T01:58:05.287Z,13.30
2018-05-27T01:59:05.216Z,12.80
2018-05-27T02:00:05.152Z,12.90
2018-05-27T02:01:05.091Z,13.20
2018-05-27T02:02:05.035Z,13.60
2018-05-27T02:03:04.972Z,13.00
2018-05-27T02:04:04.913Z,13.60
2018-05-27T02:05:04.864Z,13.20
2018-05-27T02:06:04.797Z,14.50
2018-05-27T02:07:04.734Z,13.30
2018-05-27T02:08:04.677Z,13.30
2018-05-27T02:09:04.617Z,13.80
2018-05-27T02:10:04.559Z,13.60
2018-05-27T02:11:04.498Z,13.80
2018-05-27T02:12:04.438Z,13.90
2018-05-27T02:13:04.380Z,12.60
2018-05-27T02:14:04.324Z,13.50
2018-05-27T02:15:04.263Z,12.90
2018-05-27T02:16:04.200Z,13.60
2018-05-27T02:17:04.142Z,14.20
2018-05-27T02:18:04.083Z,14.30
2018-05-27T02:19:04.024Z,13.10
2018-05-27T02:20:03.964Z,13.60
2018-05-27T02:21:03.900Z,13.70
2018-05-27T02:22:03.843Z,13.60
2018-05-27T02:23:03.784Z,13.70
2018-05-27T02:24:03.727Z,14.50
2018-05-27T02:25:03.665Z,13.80
2018-05-27T02:26:03.606Z,14.00
2018-05-27T02:27:03.548Z,13.50
2018-05-27T02:28:03.499Z,14.20
2018-05-27T02:29:03.427Z,15.20
2018-05-27T02:30:03.380Z,14.70
2018-05-27T02:31:03.309Z,15.70
2018-05-27T02:32:03.251Z,15.00
2018-05-27T02:33:03.190Z,14.80
2018-05-27T02:34:03.132Z,13.80
2018-05-27T02:35:03.072Z,14.00
2018-05-27T02:36:03.010Z,14.70
2018-05-27T02:37:02.951Z,14.70
2018-05-27T02:38:02.891Z,14.90
2018-05-27T02:39:02.829Z,14.70
2018-05-27T02:40:02.769Z,14.40
2018-05-27T02:41:02.713Z,14.30
2018-05-27T02:42:02.653Z,14.80
2018-05-27T02:43:02.592Z,13.50
2018-05-27T02:44:02.534Z,14.90
2018-05-27T02:45:02.471Z,14.00
2018-05-27T02:46:02.413Z,15.50
2018-05-27T02:47:02.353Z,15.70
2018-05-27T02:48:02.297Z,14.70
2018-05-27T02:49:02.235Z,14.80
2018-05-27T02:50:02.178Z,15.10
2018-05-27T02:51:02.119Z,14.80
2018-05-27T02:52:02.059Z,15.00
2018-05-27T02:53:01.996Z,15.90
2018-05-27T02:54:01.935Z,14.70
2018-05-27T02:55:01.879Z,14.70
2018-05-27T02:56:01.822Z,15.40
2018-05-27T02:57:01.758Z,15.30
2018-05-27T02:58:01.693Z,15.60
2018-05-27T02:59:01.636Z,14.90
2018-05-27T03:00:01.581Z,15.30
2018-05-27T03:01:01.521Z,15.00
2018-05-27T03:02:01.464Z,16.10
2018-05-27T03:03:01.401Z,15.70
2018-05-27T03:04:01.342Z,15.20
2018-05-27T03:05:01.278Z,15.40
2018-05-27T03:06:01.219Z,15.10
2018-05-27T03:07:01.157Z,16.10
2018-05-27T03:08:01.108Z,16.00
2018-05-27T03:09:01.040Z,15.40
2018-05-27T03:10:00.985Z,15.60
2018-05-27T03:11:00.923Z,16.40
2018-05-27T03:12:00.862Z,14.80
2018-05-27T03:13:00.799Z,15.90
2018-05-27T03:14:00.744Z,15.20
2018-05-27T03:15:00.682Z,14.80
2018-05-27T03:16:00.631Z,16.70
2018-05-27T03:17:00.562Z,15.80
2018-05-27T03:18:00.500Z,15.30
2018-05-27T03:19:00.440Z,15.90
2018-05-27T03:20:00.382Z,15.30
2018-05-27T03:21:00.331Z,15.60
2018-05-27T03:22:00.295Z,15.90
2018-05-27T03:23:00.203Z,15.40
2018-05-27T03:24:00.146Z,16.40
2018-05-27T03:25:00.082Z,16.30
2018-05-27T03:26:00.021Z,16.00
2018-05-27T03:26:59.963Z,16.10
2018-05-27T03:27:59.904Z,15.20
2018-05-27T03:28:59.841Z,16.50
2018-05-27T03:29:59.781Z,15.70
2018-05-27T03:30:59.733Z,16.80
2018-05-27T03:31:59.661Z,16.20
2018-05-27T03:32:59.605Z,16.20
2018-05-27T03:33:59.541Z,16.20
2018-05-27T03:34:59.481Z,16.80
2018-05-27T03:35:59.423Z,16.90
2018-05-27T03:36:59.360Z,16.10
2018-05-27T03:37:59.303Z,16.90
2018-05-27T03:38:59.241Z,16.50
2018-05-27T03:39:59.182Z,15.70
2018-05-27T03:40:59.124Z,17.00
2018-05-27T03:41:59.064Z,16.70
2018-05-27T03:42:59.009Z,16.50
2018-05-27T03:43:58.941Z,16.80
2018-05-27T03:44:58.884Z,16.80
2018-05-27T03:45:58.823Z,17.40
2018-05-27T03:46:58.762Z,16.30
2018-05-27T03:47:58.703Z,16.40
2018-05-27T03:48:58.641Z,16.90
2018-05-27T03:49:58.584Z,16.90
2018-05-27T03:50:58.521Z,17.20
2018-05-27T03:51:58.461Z,16.80
2018-05-27T03:52:58.403Z,17.00
2018-05-27T03:53:58.345Z,17.40
2018-05-27T03:54:58.285Z,16.80
2018-05-27T03:55:58.223Z,16.40
2018-05-27T03:56:58.161Z,16.50
2018-05-27T03:57:58.101Z,16.00
2018-05-27T03:58:58.049Z,15.60
2018-05-27T03:59:57.986Z,16.60
2018-05-27T04:00:57.924Z,16.60
2018-05-27T04:01:57.867Z,16.80
2018-05-27T04:02:57.800Z,15.80
2018-05-27T04:03:57.742Z,16.80
2018-05-27T04:04:57.689Z,16.20
2018-05-27T04:05:57.625Z,17.20
2018-05-27T04:06:57.564Z,16.00
2018-05-27T04:07:57.505Z,16.10
2018-05-27T04:08:57.445Z,15.50
2018-05-27T04:09:57.382Z,16.70
2018-05-27T04:10:57.323Z,16.70
2018-05-27T04:11:57.270Z,16.30
2018-05-27T04:12:57.204Z,16.50
2018-05-27T04:13:57.145Z,16.60
2018-05-27T04:14:57.083Z,15.60
2018-05-27T04:15:57.022Z,15.70
2018-05-27T04:16:56.966Z,15.90
2018-05-27T04:17:56.906Z,16.10
2018-05-27T04:18:56.845Z,17.40
2018-05-27T04:19:56.788Z,16.10
2018-05-27T04:20:56.723Z,16.10
2018-05-27T04:21:56.664Z,15.80
2018-05-27T04:22:56.607Z,15.70
2018-05-27T04:23:56.543Z,17.10
2018-05-27T04:24:56.498Z,16.50
2018-05-27T04:25:56.424Z,15.10
2018-05-27T04:26:56.373Z,15.80
2018-05-27T04:27:56.305Z,15.40
2018-05-27T04:28:56.249Z,16.80
2018-05-27T04:29:56.187Z,16.40
2018-05-27T04:30:56.128Z,16.70
2018-05-27T04:31:56.068Z,16.80
2018-05-27T04:32:56.005Z,16.10
2018-05-27T04:33:55.946Z,15.50
2018-05-27T04:34:55.887Z,14.70
2018-05-27T04:35:55.827Z,15.90
2018-05-27T04:36:55.772Z,17.10
2018-05-27T04:37:55.713Z,15.90
2018-05-27T04:38:55.649Z,16.80
2018-05-27T04:39:55.598Z,15.90
2018-05-27T04:40:55.528Z,16.30
2018-05-27T04:41:55.469Z,15.90
2018-05-27T04:42:55.406Z,16.20
2018-05-27T04:43:55.344Z,15.20
2018-05-27T04:44:55.297Z,16.20
2018-05-27T04:45:55.231Z,15.80
2018-05-27T04:46:55.169Z,15.50
2018-05-27T04:47:55.110Z,15.70
2018-05-27T04:48:55.054Z,15.50
2018-05-27T04:49:54.992Z,15.20
2018-05-27T04:50:54.932Z,16.20
2018-05-27T04:51:54.874Z,15.50
2018-05-27T04:52:54.815Z,16.20
2018-05-27T04:53:54.756Z,15.70
2018-05-27T04:54:54.692Z,15.10
2018-05-27T04:55:54.632Z,15.80
2018-05-27T04:56:54.578Z,15.60
2018-05-27T04:57:54.517Z,15.60
2018-05-27T04:58:54.459Z,16.80
2018-05-27T04:59:54.399Z,15.70
2018-05-27T05:00:54.337Z,16.40
2018-05-27T05:01:54.277Z,16.40
2018-05-27T05:02:54.219Z,15.80
2018-05-27T05:03:54.160Z,16.10
2018-05-27T05:04:54.097Z,15.50
2018-05-27T05:05:54.041Z,15.80
2018-05-27T05:06:53.984Z,15.60
2018-05-27T05:07:53.921Z,14.90
2018-05-27T05:08:53.865Z,15.60
2018-05-27T05:09:53.807Z,14.90
2018-05-27T05:10:53.747Z,15.60
2018-05-27T05:11:53.688Z,14.90
2018-05-27T05:12:53.627Z,15.20
2018-05-27T05:13:53.569Z,14.90
2018-05-27T05:14:53.531Z,14.80
2018-05-27T05:15:53.451Z,14.30
2018-05-27T05:16:53.396Z,14.30
2018-05-27T05:17:53.344Z,14.10
2018-05-27T05:18:53.280Z,14.10
2018-05-27T05:19:53.218Z,13.80
2018-05-27T05:20:53.164Z,14.10
2018-05-27T05:21:53.105Z,13.90
2018-05-27T05:22:53.046Z,13.60
2018-05-27T05:23:52.987Z,14.00
2018-05-27T05:24:52.930Z,14.20
2018-05-27T05:25:52.869Z,14.20
2018-05-27T05:26:52.819Z,14.40
2018-05-27T05:27:52.755Z,14.50
2018-05-27T05:28:52.695Z,13.60
2018-05-27T05:29:52.641Z,14.60
2018-05-27T05:30:52.579Z,15.60
2018-05-27T05:31:52.520Z,14.30
2018-05-27T05:32:52.469Z,13.30
2018-05-27T05:33:52.404Z,14.20
2018-05-27T05:34:52.345Z,13.80
2018-05-27T05:35:52.288Z,14.60
2018-05-27T05:36:52.233Z,14.90
2018-05-27T05:37:52.173Z,15.10
2018-05-27T05:38:52.114Z,14.70
2018-05-27T05:39:52.056Z,14.50
2018-05-27T05:40:51.997Z,14.00
2018-05-27T05:41:51.939Z,14.00
2018-05-27T05:42:51.880Z,14.30
2018-05-27T05:43:51.824Z,13.90
2018-05-27T05:44:51.763Z,15.30
2018-05-27T05:45:51.712Z,14.50
2018-05-27T05:46:51.648Z,14.40
2018-05-27T05:47:51.594Z,14.10
2018-05-27T05:48:51.530Z,14.20
2018-05-27T05:49:51.473Z,14.20
2018-05-27T05:50:51.424Z,13.70
2018-05-27T05:51:51.357Z,14.50
2018-05-27T05:52:51.296Z,13.50
2018-05-27T05:53:51.242Z,13.40
2018-05-27T05:54:51.182Z,13.90
2018-05-27T05:55:51.124Z,13.90
2018-05-27T05:56:51.069Z,13.70
2018-05-27T05:57:51.011Z,14.30
2018-05-27T05:58:50.953Z,14.00
2018-05-27T05:59:50.895Z,13.00
2018-05-27T06:00:50.835Z,13.90
2018-05-27T06:01:50.780Z,13.50
2018-05-27T06:02:50.718Z,13.50
2018-05-27T06:03:50.657Z,13.80
2018-05-27T06:04:50.603Z,13.30
2018-05-27T06:05:50.545Z,13.10
2018-05-27T06:06:50.483Z,12.90
2018-05-27T06:07:50.428Z,13.20
2018-05-27T06:08:50.374Z,13.30
2018-05-27T06:09:50.315Z,13.80
2018-05-27T06:10:50.256Z,13.30
2018-05-27T06:11:50.200Z,12.90
2018-05-27T06:12:50.138Z,13.50
2018-05-27T06:13:50.083Z,12.70
2018-05-27T06:14:50.019Z,13.60
2018-05-27T06:15:49.969Z,13.20
2018-05-27T06:16:49.909Z,13.30
2018-05-27T06:17:49.852Z,12.70
2018-05-27T06:18:49.795Z,13.00
2018-05-27T06:19:49.735Z,13.20
2018-05-27T06:20:49.676Z,13.10
2018-05-27T06:21:49.619Z,12.70
2018-05-27T06:22:49.562Z,12.70
2018-05-27T06:23:49.509Z,12.80
2018-05-27T06:24:49.447Z,12.00
2018-05-27T06:25:49.437Z,12.20
2018-05-27T06:26:49.330Z,12.40
2018-05-27T06:27:49.270Z,12.00
2018-05-27T06:28:49.218Z,12.60
2018-05-27T06:29:49.159Z,11.90
2018-05-27T06:30:49.100Z,12.10
2018-05-27T06:31:49.048Z,11.30
2018-05-27T06:32:48.982Z,11.40
2018-05-27T06:33:48.927Z,12.10
2018-05-27T06:34:48.872Z,11.90
2018-05-27T06:35:48.814Z,11.50
2018-05-27T06:36:48.760Z,11.60
2018-05-27T06:37:48.701Z,11.30
2018-05-27T06:38:48.701Z,11.70
2018-05-27T06:39:48.583Z,12.30
2018-05-27T06:40:48.527Z,11.10
2018-05-27T06:41:48.472Z,11.80
2018-05-27T06:42:48.414Z,11.30
2018-05-27T06:43:48.358Z,11.30
2018-05-27T06:44:48.304Z,11.30
2018-05-27T06:45:48.239Z,11.40
2018-05-27T06:46:48.183Z,11.70
2018-05-27T06:47:48.126Z,10.70
2018-05-27T06:48:48.071Z,11.00
2018-05-27T06:49:48.018Z,11.40
2018-05-27T06:50:47.957Z,11.00
2018-05-27T06:51:47.912Z,11.30
2018-05-27T06:52:47.842Z,11.80
2018-05-27T06:53:47.785Z,12.00
2018-05-27T06:54:47.730Z,11.10
2018-05-27T06:55:47.672Z,10.70
2018-05-27T06:56:47.613Z,11.20
2018-05-27T06:57:47.558Z,11.30
2018-05-27T06:58:47.499Z,11.20
2018-05-27T06:59:47.444Z,11.50
2018-05-27T07:00:47.390Z,11.50
2018-05-27T07:01:47.342Z,11.20
2018-05-27T07:02:47.276Z,11.10
2018-05-27T07:03:47.221Z,10.70
2018-05-27T07:04:47.227Z,11.20
2018-05-27T07:05:47.112Z,10.80
2018-05-27T07:06:47.051Z,10.70
2018-05-27T07:07:46.989Z,10.70
2018-05-27T07:08:46.935Z,10.60
2018-05-27T07:09:46.882Z,10.90
2018-05-27T07:10:46.819Z,11.00
2018-05-27T07:11:46.765Z,10.80
2018-05-27T07:12:46.709Z,11.30
2018-05-27T07:13:46.662Z,11.00
2018-05-27T07:14:46.597Z,11.40
2018-05-27T07:15:46.537Z,11.10
2018-05-27T07:16:46.481Z,10.60
2018-05-27T07:17:46.424Z,10.60
2018-05-27T07:18:46.370Z,11.00
2018-05-27T07:19:46.317Z,10.70
2018-05-27T07:20:46.258Z,11.10
2018-05-27T07:21:46.201Z,11.10
2018-05-27T07:22:46.142Z,11.20
2018-05-27T07:23:46.088Z,11.00
2018-05-27T07:24:46.029Z,11.40
2018-05-27T07:25:45.977Z,12.00
2018-05-27T07:26:45.933Z,11.00
2018-05-27T07:27:45.863Z,11.10
2018-05-27T07:28:45.803Z,10.30
2018-05-27T07:29:45.748Z,10.80
2018-05-27T07:30:45.689Z,10.40
2018-05-27T07:31:45.639Z,11.40
2018-05-27T07:32:45.585Z,10.50
2018-05-27T07:33:45.526Z,10.50
2018-05-27T07:34:45.474Z,11.30
2018-05-27T07:35:45.415Z,10.40
2018-05-27T07:36:45.358Z,10.40
2018-05-27T07:37:45.299Z,10.70
2018-05-27T07:38:45.249Z,10.70
2018-05-27T07:39:45.190Z,10.70
2018-05-27T07:40:45.182Z,10.30
2018-05-27T07:41:45.077Z,11.10
2018-05-27T07:42:45.020Z,10.90
2018-05-27T07:43:44.963Z,11.00
2018-05-27T07:44:44.909Z,11.00
2018-05-27T07:45:44.855Z,11.30
2018-05-27T07:46:44.795Z,10.10
2018-05-27T07:47:44.749Z,10.70
2018-05-27T07:48:44.682Z,10.20
2018-05-27T07:49:44.624Z,10.30
2018-05-27T07:50:44.570Z,10.20
2018-05-27T07:51:44.516Z,14.10
2018-05-27T07:52:44.460Z,14.20
2018-05-27T07:53:44.409Z,10.20
2018-05-27T07:54:44.350Z,9.90
2018-05-27T07:55:44.294Z,10.20
2018-05-27T07:56:44.235Z,10.20
2018-05-27T07:57:44.181Z,10.10
2018-05-27T07:58:44.127Z,10.10
2018-05-27T07:59:44.069Z,10.40
2018-05-27T08:00:44.014Z,10.30
2018-05-27T08:01:43.954Z,10.20
2018-05-27T08:02:43.903Z,10.80
2018-05-27T08:03:43.846Z,11.10
2018-05-27T08:04:43.792Z,11.00
2018-05-27T08:05:43.737Z,9.80
2018-05-27T08:06:43.683Z,10.60
2018-05-27T08:07:43.625Z,11.00
2018-05-27T08:08:43.568Z,10.00
2018-05-27T08:09:43.510Z,10.80
2018-05-27T08:10:43.455Z,11.80
2018-05-27T08:11:43.400Z,10.10
2018-05-27T08:12:43.346Z,9.50
2018-05-27T08:13:43.291Z,9.80
2018-05-27T08:14:43.232Z,11.10
2018-05-27T08:15:43.198Z,9.90
2018-05-27T08:16:43.125Z,9.90
2018-05-27T08:17:43.068Z,9.50
2018-05-27T08:18:43.017Z,9.50
2018-05-27T08:19:42.998Z,10.90
2018-05-27T08:20:42.900Z,11.10
2018-05-27T08:21:42.845Z,10.00
2018-05-27T08:22:42.792Z,10.10
2018-05-27T08:23:42.732Z,10.20
2018-05-27T08:24:42.682Z,10.30
2018-05-27T08:25:42.624Z,9.20
2018-05-27T08:26:42.568Z,9.30
2018-05-27T08:27:42.515Z,9.80
2018-05-27T08:28:42.454Z,10.90
2018-05-27T08:29:42.400Z,10.80
2018-05-27T08:30:42.348Z,9.80
2018-05-27T08:31:42.293Z,10.60
2018-05-27T08:32:42.236Z,17.50
2018-05-27T08:33:42.178Z,10.50
2018-05-27T08:34:42.125Z,9.20
2018-05-27T08:35:42.065Z,9.90
2018-05-27T08:36:42.018Z,10.90
2018-05-27T08:37:41.959Z,11.40
2018-05-27T08:38:41.906Z,11.00
2018-05-27T08:39:41.850Z,10.30
2018-05-27T08:40:41.794Z,9.80
2018-05-27T08:41:41.734Z,11.50
2018-05-27T08:42:41.682Z,14.10
2018-05-27T08:43:41.625Z,14.50
2018-05-27T08:44:41.576Z,17.10
2018-05-27T08:45:41.522Z,17.80
2018-05-27T08:46:41.466Z,19.30
2018-05-27T08:47:41.407Z,13.00
2018-05-27T08:48:41.350Z,11.10
2018-05-27T08:49:41.297Z,16.30
2018-05-27T08:50:41.240Z,12.70
2018-05-27T08:51:41.183Z,9.20
2018-05-27T08:52:41.129Z,9.70
2018-05-27T08:53:41.075Z,14.40
2018-05-27T08:54:41.021Z,9.30
2018-05-27T08:55:40.963Z,9.10
2018-05-27T08:56:40.912Z,8.50
2018-05-27T08:57:40.855Z,10.10
2018-05-27T08:58:40.837Z,7.50
2018-05-27T08:59:40.742Z,8.10
2018-05-27T09:00:40.691Z,8.10
2018-05-27T09:01:40.632Z,8.20
2018-05-27T09:02:40.580Z,8.20
2018-05-27T09:03:40.539Z,8.00
2018-05-27T09:04:40.467Z,9.60
2018-05-27T09:05:40.415Z,9.20
2018-05-27T09:06:40.358Z,9.10
2018-05-27T09:07:40.303Z,9.10
2018-05-27T09:08:40.255Z,8.40
2018-05-27T09:09:40.196Z,9.00
2018-05-27T09:10:40.144Z,9.10
2018-05-27T09:11:40.089Z,8.20
2018-05-27T09:12:40.031Z,8.60
2018-05-27T09:13:39.976Z,9.20
2018-05-27T09:14:39.928Z,7.10
2018-05-27T09:15:39.865Z,9.00
2018-05-27T09:16:39.813Z,10.00
2018-05-27T09:17:39.760Z,9.00
2018-05-27T09:18:39.704Z,9.10
2018-05-27T09:19:39.645Z,9.10
2018-05-27T09:20:39.595Z,8.90
2018-05-27T09:21:39.540Z,8.90
2018-05-27T09:22:39.488Z,9.40
2018-05-27T09:23:39.432Z,8.60
2018-05-27T09:24:39.373Z,9.80
2018-05-27T09:25:39.317Z,9.00
2018-05-27T09:26:39.272Z,8.70
2018-05-27T09:27:39.209Z,8.70
2018-05-27T09:28:39.159Z,8.40
2018-05-27T09:29:39.100Z,8.30
2018-05-27T09:30:39.046Z,9.80
2018-05-27T09:31:38.993Z,8.10
2018-05-27T09:32:38.935Z,7.90
2018-05-27T09:33:38.898Z,8.00
2018-05-27T09:34:38.829Z,8.00
2018-05-27T09:35:38.776Z,9.20
2018-05-27T09:36:38.721Z,9.40
2018-05-27T09:37:38.664Z,8.90
2018-05-27T09:38:38.613Z,9.40
2018-05-27T09:39:38.557Z,9.10
2018-05-27T09:40:38.504Z,7.70
2018-05-27T09:41:38.450Z,8.70
2018-05-27T09:42:38.407Z,8.30
2018-05-27T09:43:38.344Z,8.10
2018-05-27T09:44:38.286Z,8.40
2018-05-27T09:45:38.233Z,9.60
2018-05-27T09:46:38.179Z,9.30
2018-05-27T09:47:38.131Z,9.90
2018-05-27T09:48:38.073Z,8.30
2018-05-27T09:49:38.026Z,8.90
2018-05-27T09:50:37.957Z,7.90
2018-05-27T09:51:37.909Z,25.00
2018-05-27T09:52:37.858Z,8.10
2018-05-27T09:53:37.804Z,8.10
2018-05-27T09:54:37.757Z,8.30
2018-05-27T09:55:37.706Z,7.90
2018-05-27T09:56:37.648Z,7.70
2018-05-27T09:57:37.588Z,8.70
2018-05-27T09:58:37.533Z,8.40
2018-05-27T09:59:37.478Z,8.40
2018-05-27T10:00:37.437Z,9.10
2018-05-27T10:01:37.376Z,8.20
2018-05-27T10:02:37.321Z,8.40
2018-05-27T10:03:37.272Z,8.40
2018-05-27T10:04:37.213Z,8.20
2018-05-27T10:05:37.166Z,9.40
2018-05-27T10:06:37.128Z,9.00
2018-05-27T10:07:37.055Z,8.80
2018-05-27T10:08:37.004Z,8.40
2018-05-27T10:09:36.947Z,9.00
2018-05-27T10:10:36.894Z,8.40
2018-05-27T10:11:36.853Z,8.50
2018-05-27T10:12:36.814Z,7.90
2018-05-27T10:13:36.739Z,8.60
2018-05-27T10:14:36.685Z,8.80
2018-05-27T10:15:36.633Z,8.60
2018-05-27T10:16:36.579Z,7.70
2018-05-27T10:17:36.525Z,8.80
2018-05-27T10:18:36.472Z,8.80
2018-05-27T10:19:36.417Z,8.10
2018-05-27T10:20:36.367Z,9.20
2018-05-27T10:21:36.360Z,8.50
2018-05-27T10:22:36.258Z,8.50
2018-05-27T10:23:36.206Z,7.70
2018-05-27T10:24:36.156Z,8.30
2018-05-27T10:25:36.101Z,8.10
2018-05-27T10:26:36.087Z,8.30
2018-05-27T10:27:35.991Z,9.50
2018-05-27T10:28:35.939Z,8.80
2018-05-27T10:29:35.886Z,8.10
2018-05-27T10:30:35.832Z,7.90
2018-05-27T10:31:35.780Z,8.10
2018-05-27T10:32:35.729Z,8.10
2018-05-27T10:33:35.676Z,7.60
2018-05-27T10:34:35.622Z,8.20
2018-05-27T10:35:35.579Z,8.50
2018-05-27T10:36:35.516Z,7.40
2018-05-27T10:37:35.462Z,7.70
2018-05-27T10:38:35.414Z,6.80
2018-05-27T10:39:35.357Z,7.30
2018-05-27T10:40:35.306Z,7.00
2018-05-27T10:41:35.265Z,7.20
2018-05-27T10:42:35.197Z,7.10
2018-05-27T10:43:35.140Z,6.70
2018-05-27T10:44:35.096Z,7.80
2018-05-27T10:45:35.043Z,7.00
2018-05-27T10:46:34.990Z,6.80
2018-05-27T10:47:34.940Z,7.10
2018-05-27T10:48:34.900Z,7.30
2018-05-27T10:49:34.829Z,7.00
2018-05-27T10:50:34.776Z,7.10
2018-05-27T10:51:34.739Z,6.60
2018-05-27T10:52:34.677Z,7.20
2018-05-27T10:53:34.624Z,6.90
2018-05-27T10:54:34.572Z,7.20
2018-05-27T10:55:34.514Z,7.30
2018-05-27T10:56:34.466Z,7.30
2018-05-27T10:57:34.417Z,6.50
2018-05-27T10:58:34.358Z,6.10
2018-05-27T10:59:34.310Z,7.70
2018-05-27T11:00:34.256Z,6.70
2018-05-27T11:01:34.247Z,6.10
2018-05-27T11:02:34.151Z,6.30
2018-05-27T11:03:34.100Z,6.40
2018-05-27T11:04:34.052Z,6.20
2018-05-27T11:05:34.003Z,6.30
2018-05-27T11:06:33.948Z,5.90
2018-05-27T11:07:33.898Z,5.80
2018-05-27T11:08:33.845Z,6.20
2018-05-27T11:09:33.800Z,5.60
2018-05-27T11:10:33.748Z,6.30
2018-05-27T11:11:33.692Z,5.80
2018-05-27T11:12:33.644Z,5.80
2018-05-27T11:13:33.595Z,6.10
2018-05-27T11:14:33.545Z,5.60
2018-05-27T11:15:33.497Z,5.50
2018-05-27T11:16:33.454Z,5.60
2018-05-27T11:17:33.399Z,6.00
2018-05-27T11:18:33.353Z,6.20
2018-05-27T11:19:33.299Z,6.30
2018-05-27T11:20:33.249Z,5.80
2018-05-27T11:21:33.200Z,5.80
2018-05-27T11:22:33.150Z,5.50
2018-05-27T11:23:33.102Z,6.10
2018-05-27T11:24:33.056Z,5.10
2018-05-27T11:25:33.008Z,5.30
2018-05-27T11:26:32.958Z,5.20
2018-05-27T11:27:32.910Z,5.80
2018-05-27T11:28:32.864Z,5.40
2018-05-27T11:29:32.819Z,5.20
2018-05-27T11:30:32.770Z,5.70
2018-05-27T11:31:32.727Z,5.30
2018-05-27T11:32:32.675Z,5.50
2018-05-27T11:33:32.629Z,6.00
2018-05-27T11:34:32.587Z,5.70
2018-05-27T11:35:32.551Z,5.30
2018-05-27T11:36:32.498Z,5.90
2018-05-27T11:37:32.452Z,5.40
2018-05-27T11:38:32.405Z,5.70
2018-05-27T11:39:32.365Z,6.30
2018-05-27T11:40:32.318Z,5.70
2018-05-27T11:41:32.272Z,5.50
2018-05-27T11:42:32.276Z,6.00
2018-05-27T11:43:32.186Z,6.90
2018-05-27T11:44:32.136Z,6.80
2018-05-27T11:45:32.095Z,6.40
2018-05-27T11:46:32.056Z,6.60
2018-05-27T11:47:32.015Z,5.80
2018-05-27T11:48:31.960Z,5.50
2018-05-27T11:49:31.902Z,5.60
2018-05-27T11:50:31.863Z,5.80
2018-05-27T11:51:31.815Z,5.90
2018-05-27T11:52:31.762Z,6.10
2018-05-27T11:53:31.713Z,5.60
2018-05-27T11:54:31.667Z,5.90
2018-05-27T11:55:31.616Z,6.30
2018-05-27T11:56:31.570Z,8.30
2018-05-27T11:57:31.525Z,9.40
2018-05-27T11:58:31.475Z,6.00
2018-05-27T11:59:31.427Z,5.20
2018-05-27T12:00:31.380Z,5.30
2018-05-27T12:01:31.337Z,5.30
2018-05-27T12:02:31.283Z,5.50
2018-05-27T12:03:31.235Z,5.60
2018-05-27T12:04:31.179Z,6.10
2018-05-27T12:05:31.135Z,5.90
2018-05-27T12:06:31.085Z,5.70
2018-05-27T12:07:31.039Z,5.80
2018-05-27T12:08:30.992Z,5.10
2018-05-27T12:09:31.090Z,6.30
2018-05-27T12:10:30.893Z,7.10
2018-05-27T12:11:30.842Z,6.50
2018-05-27T12:12:30.788Z,6.20
2018-05-27T12:13:30.739Z,6.10
2018-05-27T12:14:30.696Z,5.60
2018-05-27T12:15:30.648Z,6.00
2018-05-27T12:16:30.591Z,5.70
2018-05-27T12:17:30.540Z,5.80
2018-05-27T12:18:30.492Z,6.10
2018-05-27T12:19:30.440Z,5.60
2018-05-27T12:20:30.390Z,5.50
2018-05-27T12:21:30.341Z,6.00
2018-05-27T12:22:30.290Z,6.20
2018-05-27T12:23:30.239Z,6.10
2018-05-27T12:24:30.186Z,6.50
2018-05-27T12:25:30.138Z,6.60
2018-05-27T12:26:30.101Z,6.60
2018-05-27T12:27:30.036Z,6.40
2018-05-27T12:28:29.990Z,6.30
2018-05-27T12:29:29.939Z,6.10
2018-05-27T12:30:29.882Z,6.80
2018-05-27T12:31:29.830Z,6.80
2018-05-27T12:32:29.779Z,6.70
2018-05-27T12:33:29.732Z,7.60
2018-05-27T12:34:29.676Z,6.70
2018-05-27T12:35:29.629Z,6.30
2018-05-27T12:36:29.574Z,6.40
2018-05-27T12:37:29.520Z,7.10
2018-05-27T12:38:29.467Z,7.00
2018-05-27T12:39:29.418Z,6.20
2018-05-27T12:40:29.368Z,7.10
2018-05-27T12:41:29.315Z,5.60
2018-05-27T12:42:29.261Z,6.80
2018-05-27T12:43:29.212Z,7.30
2018-05-27T12:44:29.159Z,14.20
2018-05-27T12:45:29.103Z,7.70
2018-05-27T12:46:29.055Z,6.80
2018-05-27T12:47:29.010Z,6.30
2018-05-27T12:48:28.949Z,7.10
2018-05-27T12:49:28.900Z,6.50
2018-05-27T12:50:28.854Z,7.20
2018-05-27T12:51:28.791Z,6.50
2018-05-27T12:52:28.742Z,6.30
2018-05-27T12:53:28.694Z,7.50
2018-05-27T12:54:28.637Z,12.40
2018-05-27T12:55:28.586Z,7.20
2018-05-27T12:56:28.531Z,6.60
2018-05-27T12:57:28.478Z,6.30
2018-05-27T12:58:28.428Z,5.80
2018-05-27T12:59:28.373Z,6.10
2018-05-27T13:00:28.326Z,5.80